Time;durP1;ratioP1;P1;durP2;ratioP2;P2;SDS_P1;SDS_P2;PMS_P1;PMS_P2;Temp;Humidity;BMP_temperature;BMP_pressure;BME280_temperature;BME280_humidity;BME280_pressure;Samples;Min_cycle;Max_cycle;Signal;HPM_P1;HPM_P2
2023/04/23 00:02:11;;;;;;;5.03;3.08;;;15.80;96.70;;;;;;4961379;28;20043;-72
2023/04/23 00:04:42;;;;;;;7.63;4.00;;;15.80;96.70;;;;;;4961681;28;20046;-72
2023/04/23 00:07:13;;;;;;;4.70;3.67;;;15.80;96.70;;;;;;4960528;28;20055;-73
2023/04/23 00:09:42;;;;;;;5.00;3.38;;;15.80;96.70;;;;;;4958090;28;20074;-72
2023/04/23 00:12:13;;;;;;;3.85;3.30;;;15.80;96.70;;;;;;4962009;28;20063;-72
2023/04/23 00:14:41;;;;;;;4.30;3.45;;;15.60;96.70;;;;;;4957660;28;20069;-73
2023/04/23 00:17:10;;;;;;;4.22;3.53;;;15.60;96.70;;;;;;4959673;28;20124;-73
2023/04/23 00:19:38;;;;;;;4.00;2.90;;;15.50;96.70;;;;;;4959285;28;20042;-72
2023/04/23 00:22:06;;;;;;;5.55;3.67;;;15.40;96.70;;;;;;4945894;28;20069;-72
2023/04/23 00:24:35;;;;;;;5.30;3.65;;;15.50;96.70;;;;;;4962930;28;20043;-72
2023/04/23 00:27:04;;;;;;;4.45;3.88;;;15.50;96.70;;;;;;4964054;28;20053;-73
2023/04/23 00:29:33;;;;;;;4.20;3.35;;;15.50;96.70;;;;;;4962120;28;20069;-73
2023/04/23 00:32:02;;;;;;;4.07;3.40;;;15.50;96.70;;;;;;4961052;28;20047;-73
2023/04/23 00:34:30;;;;;;;4.50;3.35;;;15.40;96.70;;;;;;4945980;28;20050;-72
2023/04/23 00:36:57;;;;;;;3.65;3.00;;;15.40;96.70;;;;;;4963016;28;20043;-73
2023/04/23 00:39:26;;;;;;;3.15;2.72;;;15.30;96.70;;;;;;4947157;28;20448;-72
2023/04/23 00:41:53;;;;;;;2.78;2.05;;;15.30;96.70;;;;;;4964014;28;20054;-73
2023/04/23 00:44:22;;;;;;;3.40;2.22;;;15.30;96.70;;;;;;4963785;28;20125;-74
2023/04/23 00:46:52;;;;;;;2.67;2.47;;;15.20;96.70;;;;;;4962703;28;20564;-74
2023/04/23 00:49:21;;;;;;;3.20;2.20;;;15.20;96.70;;;;;;4959839;28;20038;-74
2023/04/23 00:51:49;;;;;;;5.30;2.50;;;15.30;96.70;;;;;;4962508;28;20568;-74
2023/04/23 00:54:17;;;;;;;2.53;2.03;;;15.20;96.70;;;;;;4981538;28;20082;-74
2023/04/23 00:56:45;;;;;;;3.75;2.80;;;15.30;96.70;;;;;;4961404;28;20046;-74
2023/04/23 00:59:13;;;;;;;3.85;2.35;;;15.20;96.70;;;;;;4962857;28;20069;-74
2023/04/23 01:01:44;;;;;;;2.88;2.53;;;15.20;96.70;;;;;;4964769;28;20049;-72
2023/04/23 01:04:15;;;;;;;4.00;2.13;;;15.20;96.70;;;;;;4963924;28;20804;-72
2023/04/23 01:06:46;;;;;;;3.30;2.67;;;15.20;96.70;;;;;;4961253;28;20501;-73
2023/04/23 01:09:16;;;;;;;3.00;2.40;;;15.10;96.70;;;;;;4962932;28;20094;-73
2023/04/23 01:11:46;;;;;;;3.75;2.38;;;15.10;96.70;;;;;;4964157;28;20069;-73
2023/04/23 01:14:13;;;;;;;4.22;2.50;;;15.10;96.70;;;;;;4964037;28;20039;-73
2023/04/23 01:16:41;;;;;;;3.15;2.50;;;15.00;96.70;;;;;;4961891;28;20034;-72
2023/04/23 01:19:10;;;;;;;5.20;2.30;;;15.00;96.70;;;;;;4963548;28;20126;-73
2023/04/23 01:21:40;;;;;;;4.53;2.40;;;14.90;96.70;;;;;;4961790;28;20472;-73
2023/04/23 01:24:10;;;;;;;2.90;2.40;;;14.70;96.70;;;;;;4964173;28;20047;-73
2023/04/23 01:26:39;;;;;;;2.47;2.13;;;14.70;96.70;;;;;;4965279;28;20046;-73
2023/04/23 01:29:09;;;;;;;2.95;2.55;;;14.70;96.70;;;;;;4965145;28;20126;-73
2023/04/23 01:31:37;;;;;;;3.15;2.30;;;14.60;96.70;;;;;;4962182;28;20051;-73
2023/04/23 01:34:05;;;;;;;3.70;2.47;;;14.80;96.70;;;;;;4965695;28;20078;-73
2023/04/23 01:36:35;;;;;;;2.17;1.98;;;14.70;96.70;;;;;;4989930;28;20161;-73
2023/04/23 01:39:03;;;;;;;3.25;2.38;;;14.70;96.70;;;;;;4965174;28;20452;-73
2023/04/23 01:41:32;;;;;;;2.35;2.15;;;14.80;96.70;;;;;;4966483;28;20062;-73
2023/04/23 01:44:01;;;;;;;2.83;2.17;;;14.80;96.70;;;;;;4964775;28;20050;-73
2023/04/23 01:46:29;;;;;;;4.85;2.65;;;14.80;96.70;;;;;;4967717;28;21174;-73
2023/04/23 01:48:57;;;;;;;3.10;2.55;;;14.70;96.70;;;;;;4948975;28;20059;-72
2023/04/23 01:51:26;;;;;;;3.40;2.50;;;14.70;96.70;;;;;;4993403;28;20126;-72
2023/04/23 01:53:53;;;;;;;3.78;2.60;;;14.60;96.70;;;;;;4968045;28;20042;-73
2023/04/23 01:56:24;;;;;;;3.22;2.42;;;14.50;96.70;;;;;;4965110;28;20050;-73
2023/04/23 01:58:54;;;;;;;4.57;2.67;;;14.50;96.70;;;;;;4987746;28;20097;-73
2023/04/23 02:01:22;;;;;;;3.63;2.53;;;14.60;96.70;;;;;;4965479;28;20488;-73
2023/04/23 02:03:51;;;;;;;5.53;2.65;;;14.50;96.70;;;;;;4950711;28;20043;-72
2023/04/23 02:06:19;;;;;;;3.95;2.33;;;14.50;96.70;;;;;;4966816;28;20050;-72
2023/04/23 02:08:48;;;;;;;3.65;2.72;;;14.40;96.70;;;;;;4965694;28;20410;-73
2023/04/23 02:11:16;;;;;;;3.17;2.78;;;14.50;96.70;;;;;;4964753;28;21847;-73
2023/04/23 02:13:44;;;;;;;3.28;2.70;;;14.50;96.70;;;;;;4965021;28;20791;-73
2023/04/23 02:16:13;;;;;;;3.25;2.45;;;14.60;96.70;;;;;;4987652;28;20516;-72
2023/04/23 02:18:41;;;;;;;3.38;2.65;;;14.50;96.70;;;;;;4985833;28;20046;-72
2023/04/23 02:21:10;;;;;;;4.28;2.63;;;14.60;96.70;;;;;;4966816;28;20039;-72
2023/04/23 02:23:38;;;;;;;3.00;2.58;;;14.70;96.70;;;;;;4965898;28;20130;-73
2023/04/23 02:26:07;;;;;;;3.97;2.67;;;14.70;96.70;;;;;;4966202;28;20080;-72
2023/04/23 02:28:35;;;;;;;3.63;2.70;;;14.60;96.70;;;;;;4964182;28;20145;-73
2023/04/23 02:31:03;;;;;;;4.63;2.25;;;14.50;96.70;;;;;;4966434;28;20047;-72
2023/04/23 02:33:32;;;;;;;4.22;2.50;;;14.40;96.70;;;;;;4964358;28;20047;-72
2023/04/23 02:36:00;;;;;;;2.20;2.00;;;14.30;96.70;;;;;;4960007;28;20417;-73
2023/04/23 02:38:29;;;;;;;2.65;2.33;;;14.30;96.70;;;;;;4964376;28;20429;-73
2023/04/23 02:40:56;;;;;;;3.22;2.55;;;14.30;96.70;;;;;;4958044;28;20047;-72
2023/04/23 02:43:32;;;;;;;2.67;2.35;;;14.30;96.70;;;;;;4962922;28;20162;-73
2023/04/23 02:46:06;;;;;;;2.75;2.50;;;14.30;96.70;;;;;;4964364;28;20102;-73
2023/04/23 02:48:39;;;;;;;3.30;2.60;;;14.40;96.70;;;;;;4966457;28;20054;-73
2023/04/23 02:51:10;;;;;;;3.83;2.42;;;14.30;96.70;;;;;;4962782;28;20046;-73
2023/04/23 02:53:38;;;;;;;2.65;2.42;;;14.30;96.70;;;;;;4964474;28;20039;-73
2023/04/23 02:56:06;;;;;;;3.50;2.65;;;14.40;96.70;;;;;;4964280;28;20054;-72
2023/04/23 02:58:34;;;;;;;3.75;2.78;;;14.30;96.70;;;;;;4981646;28;20054;-73
2023/04/23 03:01:04;;;;;;;3.30;2.80;;;14.30;96.70;;;;;;4962783;28;20042;-72
2023/04/23 03:03:32;;;;;;;3.60;2.88;;;14.20;96.70;;;;;;4964661;28;20961;-72
2023/04/23 03:06:06;;;;;;;3.08;2.58;;;14.20;96.70;;;;;;4945570;28;20050;-73
2023/04/23 03:08:34;;;;;;;3.83;2.67;;;14.30;96.70;;;;;;4963894;28;20466;-72
2023/04/23 03:11:02;;;;;;;4.05;2.58;;;14.30;96.70;;;;;;4965412;28;20049;-72
2023/04/23 03:13:30;;;;;;;2.50;2.30;;;14.30;96.70;;;;;;4947092;28;20055;-72
2023/04/23 03:15:59;;;;;;;4.15;3.13;;;14.20;96.70;;;;;;4964386;28;20046;-72
2023/04/23 03:18:27;;;;;;;2.92;2.38;;;14.10;96.70;;;;;;4963870;28;20638;-72
2023/04/23 03:20:56;;;;;;;3.65;2.38;;;13.90;96.70;;;;;;4963280;28;20054;-73
2023/04/23 03:23:25;;;;;;;3.00;2.60;;;13.80;96.70;;;;;;4963791;28;20053;-73
2023/04/23 03:25:53;;;;;;;3.05;2.70;;;13.90;96.70;;;;;;4963335;28;20039;-72
2023/04/23 03:28:21;;;;;;;3.28;2.80;;;14.10;96.70;;;;;;4964966;28;20049;-72
2023/04/23 03:30:49;;;;;;;3.25;2.30;;;13.90;96.70;;;;;;4960934;28;20066;-72
2023/04/23 03:33:17;;;;;;;3.75;2.85;;;14.00;96.70;;;;;;4963301;28;20117;-72
2023/04/23 03:35:45;;;;;;;3.05;2.70;;;13.90;96.70;;;;;;4963920;28;20066;-72
2023/04/23 03:38:17;;;;;;;4.60;3.42;;;13.90;96.70;;;;;;4947292;28;20046;-73
2023/04/23 03:40:47;;;;;;;3.30;2.72;;;13.90;96.70;;;;;;4966600;28;20050;-73
2023/04/23 03:43:17;;;;;;;4.28;3.05;;;13.90;96.70;;;;;;4984876;28;20055;-74
2023/04/23 03:46:08;;;;;;;3.75;3.22;;;14.00;96.70;;;;;;4961099;28;20069;-74
2023/04/23 03:48:39;;;;;;;3.17;2.63;;;14.00;96.70;;;;;;4963400;28;20054;-76
2023/04/23 03:51:12;;;;;;;3.35;2.97;;;14.00;96.70;;;;;;4965193;28;20038;-74
2023/04/23 03:53:47;;;;;;;3.70;2.70;;;14.00;96.70;;;;;;4985696;28;20775;-74
2023/04/23 03:56:36;;;;;;;3.58;2.67;;;14.00;96.70;;;;;;4963044;28;20046;-73
2023/04/23 03:59:23;;;;;;;3.35;3.05;;;14.10;96.70;;;;;;4962916;28;20094;-74
2023/04/23 04:01:54;;;;;;;4.35;2.83;;;13.90;96.70;;;;;;4962707;28;20138;-74
2023/04/23 04:04:24;;;;;;;4.05;3.17;;;13.90;96.70;;;;;;4962021;28;20054;-74
2023/04/23 04:06:54;;;;;;;3.63;2.78;;;13.80;96.70;;;;;;4947126;28;20086;-74
2023/04/23 04:09:27;;;;;;;5.00;3.25;;;13.80;96.70;;;;;;4962943;28;20086;-74
2023/04/23 04:12:02;;;;;;;5.57;3.25;;;14.00;96.70;;;;;;4966477;28;20130;-73
2023/04/23 04:14:31;;;;;;;4.00;3.10;;;14.00;96.70;;;;;;4963048;28;20054;-74
2023/04/23 04:16:59;;;;;;;3.83;3.00;;;13.90;96.70;;;;;;4963137;28;20045;-74
2023/04/23 04:19:27;;;;;;;6.50;2.97;;;13.70;96.70;;;;;;4961083;28;20134;-74
2023/04/23 04:21:55;;;;;;;3.13;2.83;;;13.70;96.70;;;;;;4963996;28;20137;-73
2023/04/23 04:24:24;;;;;;;3.22;2.80;;;13.80;96.70;;;;;;4963203;28;20499;-75
2023/04/23 04:26:52;;;;;;;5.32;3.25;;;13.80;96.70;;;;;;4964394;28;20452;-74
2023/04/23 04:29:22;;;;;;;4.57;3.35;;;13.70;96.70;;;;;;4963297;28;20050;-74
2023/04/23 04:31:50;;;;;;;4.40;3.33;;;13.70;96.70;;;;;;4962405;28;20055;-74
2023/04/23 04:34:19;;;;;;;3.88;3.38;;;13.70;96.70;;;;;;4964066;28;20617;-73
2023/04/23 04:36:46;;;;;;;3.58;2.85;;;13.80;96.70;;;;;;4963685;28;20046;-74
2023/04/23 04:39:14;;;;;;;3.55;3.15;;;13.70;96.70;;;;;;4962948;28;20042;-74
2023/04/23 04:41:42;;;;;;;3.92;3.10;;;13.60;96.70;;;;;;4962262;28;20050;-75
2023/04/23 04:44:10;;;;;;;4.75;2.90;;;13.60;96.70;;;;;;4963290;28;20124;-74
2023/04/23 04:46:39;;;;;;;4.47;2.60;;;13.60;96.70;;;;;;4946433;28;20054;-72
2023/04/23 04:49:07;;;;;;;3.20;2.60;;;13.80;96.70;;;;;;4963803;28;20046;-73
2023/04/23 04:51:36;;;;;;;3.50;2.58;;;13.90;96.70;;;;;;4963883;28;20057;-74
2023/04/23 04:54:06;;;;;;;2.97;2.33;;;13.90;96.70;;;;;;4962901;28;20039;-74
2023/04/23 04:56:34;;;;;;;4.75;2.72;;;13.90;96.70;;;;;;4961761;28;20076;-74
2023/04/23 04:59:02;;;;;;;3.03;2.63;;;13.90;96.70;;;;;;4969769;28;20053;-73
2023/04/23 05:01:32;;;;;;;3.08;2.42;;;13.90;96.70;;;;;;4953914;28;20043;-73
2023/04/23 05:04:01;;;;;;;2.40;2.20;;;13.90;96.70;;;;;;4967529;28;20038;-73
2023/04/23 05:06:31;;;;;;;4.55;2.47;;;13.90;96.70;;;;;;4968915;28;20055;-74
2023/04/23 05:08:58;;;;;;;3.22;2.38;;;13.90;96.70;;;;;;4965534;28;20046;-73
2023/04/23 05:11:26;;;;;;;3.22;2.50;;;14.00;96.70;;;;;;4968181;28;20054;-73
2023/04/23 05:13:55;;;;;;;3.20;2.90;;;14.00;96.70;;;;;;4970424;28;20053;-73
2023/04/23 05:16:23;;;;;;;6.32;2.65;;;14.00;96.70;;;;;;4969847;28;20050;-74
2023/04/23 05:18:51;;;;;;;3.65;2.72;;;13.90;96.70;;;;;;4970770;28;20046;-74
2023/04/23 05:21:20;;;;;;;4.07;2.58;;;14.00;96.70;;;;;;4968350;28;20435;-74
2023/04/23 05:23:49;;;;;;;4.22;2.60;;;14.00;96.70;;;;;;4968101;28;20054;-74
2023/04/23 05:26:17;;;;;;;3.30;2.30;;;14.00;96.70;;;;;;4970068;28;20556;-74
2023/04/23 05:28:45;;;;;;;3.45;2.85;;;14.20;96.70;;;;;;4968644;28;20403;-74
2023/04/23 05:31:13;;;;;;;3.63;2.40;;;14.20;96.70;;;;;;4969517;28;20066;-74
2023/04/23 05:33:42;;;;;;;3.65;3.15;;;14.20;96.70;;;;;;4966738;28;20115;-74
2023/04/23 05:36:17;;;;;;;5.00;3.05;;;14.20;96.70;;;;;;4969557;28;20485;-74
2023/04/23 05:38:46;;;;;;;4.55;3.22;;;14.10;96.70;;;;;;4951585;28;20104;-74
2023/04/23 05:41:14;;;;;;;3.53;3.00;;;14.20;96.70;;;;;;4968427;28;20038;-74
2023/04/23 05:43:43;;;;;;;3.78;3.17;;;14.20;96.70;;;;;;4967808;28;20050;-73
2023/04/23 05:46:10;;;;;;;4.57;3.00;;;14.10;96.70;;;;;;4969669;28;20070;-74
2023/04/23 05:48:39;;;;;;;4.40;3.03;;;14.20;96.70;;;;;;4967901;28;20057;-73
2023/04/23 05:51:07;;;;;;;4.38;2.90;;;14.10;96.70;;;;;;4967500;28;20047;-74
2023/04/23 05:53:35;;;;;;;4.53;2.63;;;14.20;96.70;;;;;;4968688;28;20133;-74
2023/04/23 05:56:04;;;;;;;4.43;3.15;;;14.30;96.70;;;;;;4966608;28;20043;-74
2023/04/23 05:58:32;;;;;;;3.80;2.95;;;14.30;96.70;;;;;;4969022;28;20261;-73
2023/04/23 06:01:00;;;;;;;5.68;3.13;;;14.40;96.70;;;;;;4951275;28;20054;-74
2023/04/23 06:03:28;;;;;;;3.90;3.40;;;14.40;96.70;;;;;;4951170;28;20106;-74
2023/04/23 06:05:56;;;;;;;7.30;4.93;;;14.50;96.70;;;;;;4967876;28;20073;-74
2023/04/23 06:08:24;;;;;;;5.30;4.25;;;14.40;96.70;;;;;;4967257;28;20062;-74
2023/04/23 06:10:54;;;;;;;7.28;4.70;;;14.40;96.70;;;;;;4965504;28;20717;-73
2023/04/23 06:13:24;;;;;;;6.78;5.00;;;14.30;96.70;;;;;;4965130;28;20039;-74
2023/04/23 06:15:52;;;;;;;5.18;4.65;;;14.30;96.70;;;;;;4964207;28;20047;-74
2023/04/23 06:18:20;;;;;;;6.28;4.45;;;14.40;96.70;;;;;;4964835;28;20497;-73
2023/04/23 06:20:50;;;;;;;5.78;5.10;;;14.50;96.70;;;;;;4963896;28;20058;-73
2023/04/23 06:23:18;;;;;;;8.38;5.05;;;14.60;96.70;;;;;;4987930;28;20042;-74
2023/04/23 06:25:46;;;;;;;6.97;5.13;;;14.60;96.70;;;;;;4964669;28;20043;-74
2023/04/23 06:28:14;;;;;;;6.00;4.68;;;14.60;96.70;;;;;;4947821;28;20607;-74
2023/04/23 06:31:04;;;;;;;5.97;4.70;;;14.60;96.70;;;;;;4963632;28;20162;-74
2023/04/23 06:33:35;;;;;;;6.90;4.55;;;14.60;96.70;;;;;;4987580;28;20129;-73
2023/04/23 06:36:03;;;;;;;7.13;5.03;;;14.70;96.70;;;;;;4963944;28;20046;-75
2023/04/23 06:38:31;;;;;;;5.25;4.38;;;14.70;96.70;;;;;;4963383;28;20042;-72
2023/04/23 06:40:59;;;;;;;5.80;4.57;;;14.80;96.70;;;;;;4964096;28;20618;-73
2023/04/23 06:43:27;;;;;;;5.13;4.28;;;14.80;96.70;;;;;;4964180;28;20035;-73
2023/04/23 06:46:31;;;;;;;6.75;4.63;;;14.70;96.70;;;;;;4957292;28;20097;-73
2023/04/23 06:49:00;;;;;;;5.05;4.32;;;14.60;96.70;;;;;;4929274;28;20051;-74
2023/04/23 06:51:28;;;;;;;5.28;4.70;;;14.60;96.70;;;;;;4942508;28;20047;-73
2023/04/23 06:53:55;;;;;;;7.80;4.68;;;14.70;96.70;;;;;;4950245;28;20047;-73
2023/04/23 06:56:25;;;;;;;7.30;4.72;;;14.60;96.70;;;;;;4960453;28;20236;-73
2023/04/23 06:58:53;;;;;;;5.88;5.00;;;14.70;96.70;;;;;;4925877;28;20897;-74
2023/04/23 07:01:21;;;;;;;7.15;5.28;;;14.60;96.70;;;;;;4950161;28;20043;-73
2023/04/23 07:03:53;;;;;;;6.03;4.75;;;14.60;96.70;;;;;;4952411;28;20141;-73
2023/04/23 07:06:21;;;;;;;6.57;5.05;;;14.60;96.70;;;;;;4953059;28;20063;-74
2023/04/23 07:08:49;;;;;;;8.43;4.95;;;14.70;96.70;;;;;;4949419;28;20543;-73
2023/04/23 07:11:17;;;;;;;8.20;4.40;;;14.90;96.70;;;;;;4944892;28;20047;-73
2023/04/23 07:13:44;;;;;;;8.27;4.15;;;15.00;96.70;;;;;;4943375;28;20163;-73
2023/04/23 07:16:18;;;;;;;8.00;4.38;;;15.00;96.70;;;;;;4946089;28;20520;-75
2023/04/23 07:18:50;;;;;;;5.30;3.95;;;15.10;96.70;;;;;;4959185;28;20139;-73
2023/04/23 07:21:18;;;;;;;6.13;4.00;;;15.20;96.70;;;;;;4957071;28;20059;-74
2023/04/23 07:23:46;;;;;;;6.93;3.63;;;15.20;96.70;;;;;;4962397;28;20051;-74
2023/04/23 07:26:15;;;;;;;5.30;3.63;;;15.30;96.70;;;;;;4963252;28;20049;-73
2023/04/23 07:28:43;;;;;;;3.95;3.50;;;15.40;96.70;;;;;;4946782;28;20054;-74
2023/04/23 07:31:10;;;;;;;9.00;4.03;;;15.50;96.70;;;;;;4945846;28;20071;-74
2023/04/23 07:33:38;;;;;;;11.25;4.18;;;15.50;96.70;;;;;;4960485;28;20062;-75
2023/04/23 07:36:08;;;;;;;8.48;4.88;;;15.60;96.70;;;;;;4961492;28;20130;-73
2023/04/23 07:38:36;;;;;;;4.55;3.67;;;15.60;96.70;;;;;;4964064;28;20386;-74
2023/04/23 07:41:04;;;;;;;5.20;4.28;;;15.70;96.70;;;;;;4964513;28;20411;-74
2023/04/23 07:43:32;;;;;;;5.57;4.13;;;15.70;96.70;;;;;;4962453;28;20062;-74
2023/04/23 07:46:00;;;;;;;5.47;3.75;;;15.80;96.70;;;;;;4963629;28;20043;-74
2023/04/23 07:48:28;;;;;;;7.22;4.10;;;15.80;96.70;;;;;;4947055;28;20057;-73
2023/04/23 07:50:56;;;;;;;5.80;3.88;;;15.90;96.70;;;;;;4963515;28;20065;-72
2023/04/23 07:53:27;;;;;;;4.25;3.78;;;15.90;96.70;;;;;;4978183;28;20146;-73
2023/04/23 07:55:55;;;;;;;4.70;3.78;;;16.00;96.70;;;;;;4946345;28;20105;-74
2023/04/23 07:58:24;;;;;;;4.45;3.38;;;16.10;96.70;;;;;;4959230;28;20115;-75
2023/04/23 08:00:52;;;;;;;6.45;4.28;;;16.20;96.70;;;;;;4960785;28;20051;-75
2023/04/23 08:03:21;;;;;;;6.93;3.67;;;16.30;96.70;;;;;;4961944;28;20085;-73
2023/04/23 08:05:50;;;;;;;4.80;4.05;;;16.40;96.70;;;;;;4963305;28;20058;-74
2023/04/23 08:08:17;;;;;;;3.90;3.45;;;16.50;96.70;;;;;;4960978;28;20128;-73
2023/04/23 08:10:47;;;;;;;5.53;4.07;;;16.50;96.70;;;;;;4961990;28;20690;-72
2023/04/23 08:13:15;;;;;;;5.63;4.00;;;16.60;96.70;;;;;;4963629;28;20058;-73
2023/04/23 08:15:44;;;;;;;3.90;3.35;;;16.60;96.70;;;;;;4969716;28;20042;-73
2023/04/23 08:18:13;;;;;;;4.10;3.47;;;16.70;96.70;;;;;;4965316;28;20059;-70
2023/04/23 08:20:41;;;;;;;4.95;3.63;;;16.80;96.70;;;;;;4960208;28;20050;-71
2023/04/23 08:23:09;;;;;;;5.07;4.07;;;16.70;96.70;;;;;;4962104;28;20094;-71
2023/04/23 08:25:37;;;;;;;6.75;3.90;;;16.80;96.70;;;;;;4962327;28;20394;-71
2023/04/23 08:28:07;;;;;;;4.57;3.70;;;17.00;96.70;;;;;;4945411;28;20065;-71
2023/04/23 08:30:35;;;;;;;5.50;4.13;;;17.10;96.70;;;;;;4945606;28;20799;-70
2023/04/23 08:33:03;;;;;;;6.80;4.28;;;17.20;96.70;;;;;;4961528;28;20174;-72
2023/04/23 08:35:31;;;;;;;5.75;5.00;;;17.30;96.70;;;;;;4946396;28;20049;-71
2023/04/23 08:38:00;;;;;;;6.97;4.35;;;17.40;96.70;;;;;;4971040;28;20058;-71
2023/04/23 08:40:30;;;;;;;6.63;4.10;;;17.50;96.70;;;;;;4963780;28;20521;-71
2023/04/23 08:43:02;;;;;;;4.50;3.88;;;17.60;96.70;;;;;;4963319;28;20460;-71
2023/04/23 08:45:40;;;;;;;6.70;3.90;;;17.70;96.70;;;;;;4963223;28;20133;-71
2023/04/23 08:48:09;;;;;;;4.72;3.92;;;17.80;96.70;;;;;;4968919;28;20034;-71
2023/04/23 08:50:41;;;;;;;4.60;3.05;;;18.00;96.70;;;;;;4963504;28;20587;-71
2023/04/23 08:53:09;;;;;;;4.38;3.38;;;18.10;96.70;;;;;;4969131;28;20413;-72
2023/04/23 08:55:37;;;;;;;4.88;3.33;;;18.20;96.70;;;;;;4966288;28;20043;-71
2023/04/23 08:58:06;;;;;;;4.22;3.22;;;18.20;96.70;;;;;;4962141;28;20125;-72
2023/04/23 09:00:35;;;;;;;4.43;3.15;;;18.20;96.70;;;;;;4961736;28;20130;-71
2023/04/23 09:03:04;;;;;;;3.53;3.00;;;18.20;96.70;;;;;;4963241;28;20054;-72
2023/04/23 09:05:33;;;;;;;4.63;2.78;;;18.30;96.70;;;;;;4962644;28;20073;-71
2023/04/23 09:08:01;;;;;;;3.35;2.65;;;18.50;96.70;;;;;;4962956;28;20073;-71
2023/04/23 09:10:28;;;;;;;4.63;2.78;;;18.60;96.70;;;;;;4962013;28;20059;-71
2023/04/23 09:12:57;;;;;;;5.43;2.60;;;18.70;96.70;;;;;;4961866;28;20105;-71
2023/04/23 09:15:25;;;;;;;4.38;2.65;;;18.60;96.70;;;;;;4970235;28;20042;-71
2023/04/23 09:17:55;;;;;;;4.13;2.83;;;18.70;96.70;;;;;;4961442;28;20734;-71
2023/04/23 09:20:24;;;;;;;4.50;2.30;;;18.80;96.70;;;;;;4962853;28;20596;-71
2023/04/23 09:22:52;;;;;;;3.55;2.53;;;19.00;96.70;;;;;;4961303;28;20112;-72
2023/04/23 09:25:21;;;;;;;3.17;2.70;;;19.00;96.70;;;;;;4961956;28;20055;-72
2023/04/23 09:27:51;;;;;;;2.45;2.22;;;19.00;96.70;;;;;;4967855;28;20128;-72
2023/04/23 09:30:19;;;;;;;5.28;2.25;;;18.90;96.70;;;;;;4954636;28;20094;-72
2023/04/23 09:32:48;;;;;;;2.67;2.20;;;18.90;96.70;;;;;;4962962;28;20051;-72
2023/04/23 09:35:19;;;;;;;3.05;2.40;;;19.00;96.70;;;;;;4961548;28;20150;-72
2023/04/23 09:37:48;;;;;;;3.10;2.22;;;19.10;96.70;;;;;;4962544;28;20039;-73
2023/04/23 09:40:18;;;;;;;3.05;2.00;;;19.00;96.70;;;;;;4961422;28;20054;-72
2023/04/23 09:42:48;;;;;;;2.78;2.20;;;19.10;96.70;;;;;;4960074;28;20042;-72
2023/04/23 09:45:18;;;;;;;3.13;2.15;;;19.30;96.70;;;;;;4965400;28;20112;-72
2023/04/23 09:47:51;;;;;;;2.33;1.90;;;19.30;96.70;;;;;;4965257;28;20137;-72
2023/04/23 09:50:31;;;;;;;5.13;4.25;;;19.40;96.70;;;;;;4966696;28;20050;-72
2023/04/23 09:53:00;;;;;;;3.13;2.00;;;19.60;96.70;;;;;;4966428;28;20053;-72
2023/04/23 09:55:29;;;;;;;4.07;1.80;;;19.70;96.70;;;;;;4971738;28;20042;-72
2023/04/23 09:57:58;;;;;;;3.92;2.20;;;19.80;96.70;;;;;;4967097;28;20051;-73
2023/04/23 10:00:31;;;;;;;2.88;1.88;;;19.80;96.70;;;;;;4966395;28;20057;-72
2023/04/23 10:03:07;;;;;;;3.13;2.03;;;19.90;96.70;;;;;;4965896;28;20732;-72
2023/04/23 10:05:42;;;;;;;2.67;1.88;;;20.20;96.70;;;;;;4966346;28;20224;-72
2023/04/23 10:08:15;;;;;;;2.08;1.58;;;20.50;96.70;;;;;;4949071;28;20699;-72
2023/04/23 10:10:45;;;;;;;3.42;1.70;;;20.80;96.70;;;;;;4966166;28;20074;-72
2023/04/23 10:13:34;;;;;;;2.35;1.40;;;21.00;96.70;;;;;;4964797;28;20054;-72
2023/04/23 10:16:04;;;;;;;3.35;1.70;;;21.20;96.70;;;;;;4966481;28;20440;-72
2023/04/23 10:18:49;;;;;;;;;;;21.30;96.70;;;;;;4966209;28;20512;-72
2023/04/23 10:21:19;;;;;;;3.15;1.70;;;21.40;96.70;;;;;;4964148;28;19976;-72
2023/04/23 10:23:50;;;;;;;2.83;1.58;;;21.50;96.70;;;;;;4965257;28;20152;-72
2023/04/23 10:26:24;;;;;;;1.70;1.60;;;21.50;96.70;;;;;;4964678;28;20189;-72
2023/04/23 10:28:56;;;;;;;2.85;2.00;;;21.60;96.70;;;;;;4965997;28;20134;-72
2023/04/23 10:31:24;;;;;;;2.60;1.45;;;21.70;96.70;;;;;;4961292;28;20043;-72
2023/04/23 10:33:55;;;;;;;9.10;7.65;;;22.00;96.70;;;;;;4965917;28;20051;-72
2023/04/23 10:36:27;;;;;;;30.92;27.92;;;22.30;96.70;;;;;;4964410;28;20055;-72
2023/04/23 10:39:02;;;;;;;5.22;4.50;;;22.40;96.70;;;;;;4965592;28;20468;-72
2023/04/23 10:41:36;;;;;;;6.43;5.82;;;22.20;96.70;;;;;;4964049;28;20094;-72
2023/04/23 10:44:04;;;;;;;3.20;2.90;;;22.20;96.70;;;;;;4970591;28;20159;-72
2023/04/23 10:46:33;;;;;;;3.15;2.70;;;22.10;96.70;;;;;;4965247;28;20702;-72
2023/04/23 10:49:20;;;;;;;5.90;4.30;;;22.20;96.70;;;;;;4965171;28;20170;-72
2023/04/23 10:51:58;;;;;;;2.85;2.10;;;22.40;96.70;;;;;;4947543;28;20113;-72
2023/04/23 10:54:49;;;;;;;2.10;1.50;;;22.40;96.70;;;;;;4970342;28;20536;-72
2023/04/23 10:57:18;;;;;;;3.40;2.10;;;22.30;96.70;;;;;;4965033;28;20687;-72
2023/04/23 10:59:52;;;;;;;2.17;1.83;;;22.20;96.70;;;;;;4965066;28;20077;-73
2023/04/23 11:02:24;;;;;;;2.22;1.35;;;22.30;96.70;;;;;;4964124;28;20054;-73
2023/04/23 11:04:55;;;;;;;2.50;1.40;;;22.30;96.70;;;;;;4963926;28;20055;-72
2023/04/23 11:07:30;;;;;;;1.67;1.30;;;22.30;96.70;;;;;;4964893;28;20086;-72
2023/04/23 11:09:59;;;;;;;2.10;1.45;;;22.20;96.70;;;;;;4965057;28;20042;-72
2023/04/23 11:12:31;;;;;;;1.75;1.45;;;22.30;96.70;;;;;;4963828;28;20134;-72
2023/04/23 11:15:09;;;;;;;1.50;1.30;;;22.30;96.70;;;;;;4965742;28;20567;-72
2023/04/23 11:18:19;;;;;;;2.17;1.52;;;22.30;96.70;;;;;;4965094;28;20050;-72
2023/04/23 11:20:49;;;;;;;2.08;1.30;;;22.20;96.70;;;;;;4965012;28;20746;-72
2023/04/23 11:23:31;;;;;;;1.92;1.60;;;22.40;96.70;;;;;;4964780;28;20058;-72
2023/04/23 11:26:01;;;;;;;1.75;1.42;;;22.30;96.70;;;;;;4957483;28;20054;-72
2023/04/23 11:28:31;;;;;;;2.78;1.55;;;22.10;96.70;;;;;;4962951;28;20129;-72
2023/04/23 11:30:59;;;;;;;1.73;1.30;;;22.10;96.70;;;;;;4963283;28;20255;-72
2023/04/23 11:33:28;;;;;;;3.50;1.85;;;22.40;96.70;;;;;;4963459;28;20031;-72
2023/04/23 11:35:56;;;;;;;3.28;1.50;;;22.80;96.70;;;;;;4962866;28;20238;-72
2023/04/23 11:38:35;;;;;;;1.88;1.38;;;22.90;96.70;;;;;;4954835;28;20060;-72
2023/04/23 11:41:22;;;;;;;2.75;1.60;;;22.80;96.70;;;;;;4964993;28;20043;-73
2023/04/23 11:43:50;;;;;;;2.88;1.63;;;22.60;96.70;;;;;;4962945;28;20039;-72
2023/04/23 11:46:20;;;;;;;2.55;1.67;;;22.50;96.70;;;;;;4963172;28;20142;-72
2023/04/23 11:48:49;;;;;;;3.53;1.80;;;22.70;96.70;;;;;;4964348;28;20053;-72
2023/04/23 11:51:17;;;;;;;2.22;1.60;;;23.20;96.70;;;;;;4962933;28;20042;-72
2023/04/23 11:53:48;;;;;;;1.90;1.35;;;23.40;96.70;;;;;;4966876;28;20183;-73
2023/04/23 11:56:16;;;;;;;3.53;1.55;;;23.60;96.70;;;;;;4948467;28;20424;-72
2023/04/23 11:58:45;;;;;;;2.95;1.50;;;23.80;96.70;;;;;;4964002;28;20065;-72
2023/04/23 12:01:14;;;;;;;1.95;1.45;;;24.10;96.70;;;;;;4963875;28;20051;-72
2023/04/23 12:03:48;;;;;;;2.88;1.55;;;23.90;96.70;;;;;;4964342;28;20544;-71
2023/04/23 12:06:18;;;;;;;1.95;1.30;;;23.80;96.70;;;;;;4964279;28;20137;-71
2023/04/23 12:08:48;;;;;;;2.70;1.20;;;23.80;96.70;;;;;;4961124;28;20047;-71
2023/04/23 12:11:16;;;;;;;2.90;1.40;;;23.80;96.70;;;;;;4962289;28;20141;-71
2023/04/23 12:13:45;;;;;;;1.92;1.20;;;23.80;96.70;;;;;;4964060;28;20054;-72
2023/04/23 12:16:13;;;;;;;1.60;1.20;;;24.00;96.70;;;;;;4947333;28;20137;-71
2023/04/23 12:18:44;;;;;;;2.53;1.35;;;24.10;96.70;;;;;;4962957;28;20109;-72
2023/04/23 12:21:13;;;;;;;1.55;1.20;;;24.20;96.70;;;;;;4964246;28;20050;-72
2023/04/23 12:23:45;;;;;;;1.52;1.13;;;24.30;96.70;;;;;;4965725;28;20493;-72
2023/04/23 12:26:16;;;;;;;3.20;1.30;;;24.60;96.70;;;;;;4962746;28;20043;-72
2023/04/23 12:28:50;;;;;;;2.03;1.30;;;24.70;96.70;;;;;;4972798;28;20501;-72
2023/04/23 12:31:20;;;;;;;3.72;1.40;;;24.90;96.70;;;;;;4963607;28;20079;-72
2023/04/23 12:34:01;;;;;;;3.70;1.48;;;25.00;96.70;;;;;;4963607;28;20685;-71
2023/04/23 12:36:30;;;;;;;2.78;1.52;;;24.90;96.70;;;;;;4971812;28;20513;-72
2023/04/23 12:39:30;;;;;;;3.17;1.42;;;24.60;96.70;;;;;;4963679;28;20141;-72
2023/04/23 12:42:03;;;;;;;3.40;1.30;;;24.60;96.70;;;;;;4972386;28;20058;-70
2023/04/23 12:44:35;;;;;;;1.35;1.00;;;24.90;96.70;;;;;;4963958;28;20054;-71
2023/04/23 12:47:06;;;;;;;3.55;1.30;;;24.90;96.70;;;;;;4967984;28;20585;-72
2023/04/23 12:49:36;;;;;;;1.67;1.17;;;25.30;96.70;;;;;;4965195;28;20649;-72
2023/04/23 12:52:05;;;;;;;2.75;1.35;;;25.30;96.70;;;;;;4970118;28;20581;-71
2023/04/23 12:54:36;;;;;;;1.95;1.05;;;25.40;96.70;;;;;;4964014;28;20563;-71
2023/04/23 12:57:09;;;;;;;2.92;1.85;;;25.20;96.70;;;;;;4970034;28;20659;-72
2023/04/23 12:59:38;;;;;;;2.92;1.20;;;25.00;96.70;;;;;;4963788;28;20138;-72
2023/04/23 13:02:07;;;;;;;3.67;1.52;;;24.80;96.70;;;;;;4962068;28;20126;-72
2023/04/23 13:04:36;;;;;;;3.08;1.63;;;24.60;96.70;;;;;;4971362;28;20137;-72